Terminal Aerodrome Forecast
Issued by NWS

Home | Current Version | Previous Version | Text Only | Print | Product List | Glossary On
Versions: 1 2 3 4 5 6 7 8 9 10 11 12 13 14 15 16 17 18 19 20 21 22 23 24
000
FTUS43 KGRB 202300
TAFATW
TAF
KATW 202337Z 2100/2124 32010G14KT P6SM VCSH SCT030 BKN050
      TEMPO 2100/2103 5SM -RA BKN025
     FM210400 35005KT P6SM SCT020 BKN040
     FM210900 36009KT P6SM BKN022
     FM211400 01009KT P6SM BKN028
     FM211600 02009KT P6SM SCT030=

USA.gov is the U.S. government's official web portal to all federal, state and local government web resources and services.